createdAt,value
2022-12-01T00:01:02.174Z,7.30
2022-12-01T00:03:32.753Z,8.27
2022-12-01T00:06:04.656Z,7.78
2022-12-01T00:08:32.063Z,7.90
2022-12-01T00:11:14.204Z,8.05
2022-12-01T00:13:40.734Z,7.68
2022-12-01T00:16:14.803Z,7.80
2022-12-01T00:18:41.448Z,7.50
2022-12-01T00:21:14.576Z,7.45
2022-12-01T00:23:44.783Z,7.45
2022-12-01T00:26:11.324Z,7.68
2022-12-01T00:28:37.844Z,6.75
2022-12-01T00:31:08.143Z,8.13
2022-12-01T00:33:34.856Z,8.35
2022-12-01T00:36:01.915Z,7.75
2022-12-01T00:38:28.950Z,7.95
2022-12-01T00:40:55.514Z,7.97
2022-12-01T00:43:22.052Z,8.18
2022-12-01T00:45:48.666Z,7.95
2022-12-01T00:48:15.265Z,7.68
2022-12-01T00:50:41.852Z,7.50
2022-12-01T00:53:08.572Z,7.35
2022-12-01T00:55:35.135Z,6.97
2022-12-01T00:58:01.644Z,7.70
2022-12-01T01:00:28.179Z,6.82
2022-12-01T01:02:54.821Z,7.03
2022-12-01T01:05:21.369Z,8.02
2022-12-01T01:07:47.939Z,7.55
2022-12-01T01:10:14.511Z,8.00
2022-12-01T01:12:41.028Z,7.57
2022-12-01T01:15:07.935Z,6.65
2022-12-01T01:17:34.779Z,8.00
2022-12-01T01:20:01.400Z,7.22
2022-12-01T01:22:27.928Z,7.47
2022-12-01T01:24:54.464Z,7.78
2022-12-01T01:27:21.007Z,7.15
2022-12-01T01:29:47.948Z,7.70
2022-12-01T01:32:14.754Z,7.10
2022-12-01T01:34:41.267Z,7.60
2022-12-01T01:37:07.810Z,7.40
2022-12-01T01:39:34.404Z,7.28
2022-12-01T01:42:00.917Z,7.55
2022-12-01T01:44:52.073Z,7.82
2022-12-01T01:47:25.734Z,7.03
2022-12-01T01:49:53.532Z,7.05
2022-12-01T01:52:20.612Z,7.47
2022-12-01T01:54:50.623Z,6.72
2022-12-01T01:57:23.047Z,9.70
2022-12-01T01:59:54.240Z,7.05
2022-12-01T02:02:21.086Z,7.65
2022-12-01T02:04:51.707Z,7.63
2022-12-01T02:07:19.410Z,7.60
2022-12-01T02:09:46.565Z,7.43
2022-12-01T02:12:34.305Z,6.47
2022-12-01T02:15:13.175Z,7.10
2022-12-01T02:18:04.399Z,8.05
2022-12-01T02:20:43.109Z,7.40
2022-12-01T02:23:37.735Z,7.10
2022-12-01T02:26:06.805Z,7.18
2022-12-01T02:28:54.902Z,6.85
2022-12-01T02:31:21.385Z,7.22
2022-12-01T02:34:03.079Z,7.30
2022-12-01T02:36:35.843Z,7.63
2022-12-01T02:39:14.798Z,6.57
2022-12-01T02:41:51.321Z,7.68
2022-12-01T02:44:25.388Z,8.02
2022-12-01T02:46:59.198Z,7.50
2022-12-01T02:49:42.232Z,7.63
2022-12-01T02:52:10.186Z,7.37
2022-12-01T02:54:37.138Z,7.43
2022-12-01T02:57:03.951Z,8.38
2022-12-01T02:59:30.480Z,7.40
2022-12-01T03:02:15.646Z,6.72
2022-12-01T03:05:04.615Z,7.70
2022-12-01T03:07:46.434Z,7.10
2022-12-01T03:10:40.103Z,7.15
2022-12-01T03:13:21.758Z,6.97
2022-12-01T03:16:06.615Z,7.43
2022-12-01T03:18:54.732Z,6.85
2022-12-01T03:21:33.778Z,7.63
2022-12-01T03:24:04.647Z,6.75
2022-12-01T03:26:33.159Z,7.55
2022-12-01T03:29:03.963Z,6.82
2022-12-01T03:31:37.970Z,7.38
2022-12-01T03:34:08.181Z,7.43
2022-12-01T03:36:42.068Z,7.60
2022-12-01T03:39:12.948Z,7.22
2022-12-01T03:41:47.670Z,7.13
2022-12-01T03:44:29.439Z,6.85
2022-12-01T03:47:02.807Z,7.43
2022-12-01T03:49:29.612Z,7.65
2022-12-01T03:51:59.141Z,7.78
2022-12-01T03:54:53.806Z,7.07
2022-12-01T03:57:26.762Z,6.57
2022-12-01T03:59:53.591Z,6.47
2022-12-01T04:02:20.168Z,7.18
2022-12-01T04:04:46.726Z,6.53
2022-12-01T04:07:14.322Z,8.48
2022-12-01T04:09:41.789Z,7.03
2022-12-01T04:12:29.394Z,6.70
2022-12-01T04:14:57.439Z,7.32
2022-12-01T04:17:24.764Z,8.02
2022-12-01T04:19:51.587Z,7.30
2022-12-01T04:22:18.502Z,6.32
2022-12-01T04:24:45.111Z,7.70
2022-12-01T04:27:11.736Z,6.72
2022-12-01T04:29:38.279Z,7.35
2022-12-01T04:32:05.043Z,7.00
2022-12-01T04:34:31.575Z,7.03
2022-12-01T04:36:58.153Z,6.97
2022-12-01T04:39:24.720Z,6.95
2022-12-01T04:41:51.256Z,7.25
2022-12-01T04:44:17.976Z,7.97
2022-12-01T04:46:44.562Z,6.80
2022-12-01T04:49:11.108Z,7.05
2022-12-01T04:51:37.682Z,7.05
2022-12-01T04:54:05.817Z,7.53
2022-12-01T04:56:33.586Z,7.55
2022-12-01T04:59:00.657Z,7.03
2022-12-01T05:01:27.234Z,7.47
2022-12-01T05:03:53.888Z,6.72
2022-12-01T05:06:26.545Z,6.90
2022-12-01T05:08:56.787Z,6.93
2022-12-01T05:11:23.859Z,7.45
2022-12-01T05:13:50.595Z,7.30
2022-12-01T05:16:20.006Z,6.82
2022-12-01T05:18:51.015Z,7.53
2022-12-01T05:21:18.178Z,7.40
2022-12-01T05:23:45.664Z,6.75
2022-12-01T05:26:12.358Z,7.05
2022-12-01T05:28:40.816Z,6.97
2022-12-01T05:31:07.424Z,6.88
2022-12-01T05:33:33.985Z,7.45
2022-12-01T05:36:00.607Z,7.53
2022-12-01T05:38:27.151Z,6.82
2022-12-01T05:40:55.000Z,6.95
2022-12-01T05:43:28.275Z,7.53
2022-12-01T05:45:56.156Z,6.80
2022-12-01T05:48:23.150Z,6.97
2022-12-01T05:50:49.672Z,7.28
2022-12-01T05:53:16.580Z,7.55
2022-12-01T05:55:43.148Z,6.57
2022-12-01T05:58:09.763Z,6.90
2022-12-01T06:00:42.277Z,6.18
2022-12-01T06:03:12.051Z,6.57
2022-12-01T06:05:39.048Z,6.93
2022-12-01T06:08:05.703Z,7.50
2022-12-01T06:10:32.252Z,6.80
2022-12-01T06:12:58.772Z,6.60
2022-12-01T06:15:26.399Z,6.75
2022-12-01T06:17:52.989Z,6.85
2022-12-01T06:20:19.545Z,6.47
2022-12-01T06:22:46.068Z,6.60
2022-12-01T06:25:12.596Z,6.90
2022-12-01T06:27:39.154Z,6.10
2022-12-01T06:30:06.558Z,6.53
2022-12-01T06:32:33.493Z,6.75
2022-12-01T06:35:00.016Z,6.38
2022-12-01T06:37:27.616Z,6.78
2022-12-01T06:39:54.803Z,7.32
2022-12-01T06:42:21.320Z,6.18
2022-12-01T06:44:47.882Z,6.50
2022-12-01T06:47:15.818Z,6.82
2022-12-01T06:49:42.347Z,6.40
2022-12-01T06:52:09.655Z,7.13
2022-12-01T06:54:37.479Z,7.00
2022-12-01T06:57:04.258Z,7.05
2022-12-01T06:59:31.075Z,6.78
2022-12-01T07:01:58.115Z,6.57
2022-12-01T07:04:24.711Z,6.32
2022-12-01T07:06:51.260Z,5.90
2022-12-01T07:09:17.822Z,6.45
2022-12-01T07:11:44.361Z,6.35
2022-12-01T07:14:21.943Z,6.32
2022-12-01T07:16:48.496Z,6.95
2022-12-01T07:19:15.042Z,5.93
2022-12-01T07:21:41.580Z,6.25
2022-12-01T07:24:08.382Z,5.60
2022-12-01T07:26:34.923Z,5.45
2022-12-01T07:29:01.445Z,6.57
2022-12-01T07:31:28.004Z,5.47
2022-12-01T07:33:54.656Z,4.90
2022-12-01T07:36:21.189Z,5.75
2022-12-01T07:38:47.938Z,6.18
2022-12-01T07:41:16.294Z,5.35
2022-12-01T07:43:43.055Z,5.28
2022-12-01T07:46:24.169Z,6.10
2022-12-01T07:48:51.676Z,8.52
2022-12-01T07:51:18.638Z,7.90
2022-12-01T07:53:46.244Z,8.27
2022-12-01T07:56:13.066Z,8.95
2022-12-01T07:58:39.590Z,10.05
2022-12-01T08:01:07.994Z,9.55
2022-12-01T08:03:34.754Z,8.82
2022-12-01T08:06:02.075Z,9.70
2022-12-01T08:08:30.415Z,8.95
2022-12-01T08:11:01.611Z,11.05
2022-12-01T08:13:28.436Z,10.52
2022-12-01T08:15:55.010Z,10.48
2022-12-01T08:18:22.912Z,12.85
2022-12-01T08:20:50.231Z,12.45
2022-12-01T08:23:16.758Z,9.57
2022-12-01T08:25:43.305Z,11.98
2022-12-01T08:28:09.896Z,9.40
2022-12-01T08:30:36.429Z,11.13
2022-12-01T08:33:03.018Z,10.27
2022-12-01T08:35:29.604Z,11.55
2022-12-01T08:37:56.133Z,9.23
2022-12-01T08:40:22.743Z,8.75
2022-12-01T08:42:49.318Z,10.60
2022-12-01T08:45:15.950Z,9.13
2022-12-01T08:47:42.483Z,9.82
2022-12-01T08:50:09.318Z,9.07
2022-12-01T08:52:35.847Z,11.57
2022-12-01T08:55:02.611Z,10.10
2022-12-01T08:57:29.935Z,9.50
2022-12-01T08:59:56.542Z,9.30
2022-12-01T09:02:23.523Z,10.30
2022-12-01T09:04:50.829Z,10.40
2022-12-01T09:07:22.979Z,9.68
2022-12-01T09:09:52.932Z,8.93
2022-12-01T09:12:19.779Z,11.38
2022-12-01T09:14:48.361Z,8.93
2022-12-01T09:17:15.817Z,9.73
2022-12-01T09:19:43.066Z,8.20
2022-12-01T09:22:10.575Z,9.57
2022-12-01T09:24:37.183Z,9.85
2022-12-01T09:27:04.456Z,9.13
2022-12-01T09:29:31.279Z,9.32
2022-12-01T09:31:58.985Z,10.00
2022-12-01T09:34:26.387Z,9.57
2022-12-01T09:36:56.550Z,10.05
2022-12-01T09:39:23.386Z,10.80
2022-12-01T09:41:59.916Z,10.63
2022-12-01T09:44:41.286Z,8.88
2022-12-01T09:47:34.485Z,9.02
2022-12-01T09:50:10.914Z,9.47
2022-12-01T09:52:44.792Z,7.43
2022-12-01T09:55:19.913Z,7.68
2022-12-01T09:57:48.311Z,8.52
2022-12-01T10:00:18.114Z,9.20
2022-12-01T10:02:49.534Z,8.75
2022-12-01T10:05:23.040Z,8.23
2022-12-01T10:07:55.061Z,7.63
2022-12-01T10:10:34.906Z,7.75
2022-12-01T10:13:01.640Z,8.88
2022-12-01T10:15:36.962Z,8.60
2022-12-01T10:18:22.014Z,7.30
2022-12-01T10:21:03.755Z,7.60
2022-12-01T10:24:21.337Z,7.38
2022-12-01T10:26:59.652Z,9.73
2022-12-01T10:29:47.588Z,9.23
2022-12-01T10:32:19.319Z,6.90
2022-12-01T10:34:47.865Z,8.88
2022-12-01T10:37:20.203Z,7.63
2022-12-01T10:39:49.795Z,7.65
2022-12-01T10:42:32.625Z,6.28
2022-12-01T10:45:10.134Z,8.60
2022-12-01T10:47:37.372Z,11.32
2022-12-01T10:50:04.369Z,13.10
2022-12-01T10:52:40.564Z,13.35
2022-12-01T10:55:35.547Z,11.48
2022-12-01T10:58:09.513Z,12.85
2022-12-01T11:00:59.152Z,10.15
2022-12-01T11:03:29.157Z,8.60
2022-12-01T11:05:58.196Z,9.48
2022-12-01T11:08:39.554Z,10.43
2022-12-01T11:11:06.825Z,8.55
2022-12-01T11:13:36.962Z,7.78
2022-12-01T11:16:06.044Z,9.98
2022-12-01T11:18:37.863Z,10.25
2022-12-01T11:21:06.087Z,10.30
2022-12-01T11:23:35.841Z,7.95
2022-12-01T11:26:06.491Z,9.30
2022-12-01T11:28:34.205Z,8.02
2022-12-01T11:31:03.967Z,9.90
2022-12-01T11:33:43.329Z,7.97
2022-12-01T11:36:14.717Z,10.30
2022-12-01T11:38:42.790Z,9.13
2022-12-01T11:41:43.423Z,7.13
2022-12-01T11:47:23.165Z,8.38
2022-12-01T11:49:57.440Z,7.38
2022-12-01T11:52:46.251Z,8.73
2022-12-01T11:55:12.697Z,7.03
2022-12-01T11:57:41.815Z,8.35
2022-12-01T12:00:17.494Z,11.13
2022-12-01T12:02:49.926Z,8.32
2022-12-01T12:05:37.835Z,10.32
2022-12-01T12:08:13.846Z,8.68
2022-12-01T12:10:55.530Z,9.00
2022-12-01T12:13:53.719Z,7.78
2022-12-01T12:16:24.546Z,8.88
2022-12-01T12:19:01.766Z,9.63
2022-12-01T12:22:09.867Z,8.57
2022-12-01T12:24:57.008Z,10.18
2022-12-01T12:27:38.403Z,11.23
2022-12-01T12:30:27.043Z,7.97
2022-12-01T12:33:18.926Z,12.23
2022-12-01T12:36:10.291Z,8.75
2022-12-01T12:38:52.494Z,9.38
2022-12-01T12:41:21.742Z,10.43
2022-12-01T12:44:26.502Z,11.02
2022-12-01T12:47:14.688Z,11.00
2022-12-01T12:49:52.804Z,9.43
2022-12-01T12:52:46.530Z,10.80
2022-12-01T12:55:15.423Z,9.88
2022-12-01T12:57:49.422Z,9.60
2022-12-01T13:00:22.593Z,10.45
2022-12-01T13:02:58.326Z,11.23
2022-12-01T13:05:41.678Z,8.80
2022-12-01T13:08:12.441Z,9.02
2022-12-01T13:10:58.055Z,12.20
2022-12-01T13:13:31.004Z,13.75
2022-12-01T13:15:58.880Z,11.43
2022-12-01T13:18:53.704Z,9.80
2022-12-01T13:21:22.536Z,10.27
2022-12-01T13:23:50.155Z,10.32
2022-12-01T13:26:19.073Z,10.68
2022-12-01T13:28:56.585Z,10.00
2022-12-01T13:31:23.556Z,10.48
2022-12-01T13:34:01.348Z,11.07
2022-12-01T13:39:27.938Z,12.00
2022-12-01T13:42:25.454Z,10.48
2022-12-01T13:44:55.867Z,9.95
2022-12-01T13:47:39.368Z,11.38
2022-12-01T13:50:33.425Z,13.30
2022-12-01T13:58:46.788Z,11.57
2022-12-01T14:01:22.876Z,12.65
2022-12-01T14:04:11.609Z,11.25
2022-12-01T14:06:49.481Z,11.55
2022-12-01T14:09:38.075Z,11.90
2022-12-01T14:12:30.317Z,12.95
2022-12-01T14:15:02.181Z,10.55
2022-12-01T14:17:31.900Z,9.48
2022-12-01T14:20:20.108Z,13.25
2022-12-01T14:22:50.276Z,11.10
2022-12-01T14:25:19.739Z,14.07
2022-12-01T14:27:48.148Z,9.98
2022-12-01T14:30:39.437Z,11.52
2022-12-01T14:33:39.999Z,12.15
2022-12-01T14:36:32.116Z,11.00
2022-12-01T14:38:58.864Z,11.10
2022-12-01T14:41:28.688Z,10.88
2022-12-01T14:44:04.932Z,11.18
2022-12-01T14:46:56.651Z,11.80
2022-12-01T14:49:25.986Z,11.35
2022-12-01T14:52:02.978Z,11.23
2022-12-01T14:54:32.880Z,11.57
2022-12-01T14:57:06.236Z,11.73
2022-12-01T14:59:34.716Z,11.70
2022-12-01T15:02:09.079Z,11.55
2022-12-01T15:04:56.439Z,12.30
2022-12-01T15:07:23.095Z,12.15
2022-12-01T15:10:01.789Z,12.50
2022-12-01T15:12:29.633Z,12.00
2022-12-01T15:14:56.204Z,11.48
2022-12-01T15:17:34.465Z,12.73
2022-12-01T15:20:01.041Z,12.23
2022-12-01T15:22:30.649Z,12.10
2022-12-01T15:25:14.888Z,12.50
2022-12-01T15:27:43.113Z,14.30
2022-12-01T15:30:13.379Z,13.07
2022-12-01T15:32:43.048Z,12.23
2022-12-01T15:35:21.392Z,12.82
2022-12-01T15:37:48.354Z,14.18
2022-12-01T15:43:07.367Z,15.65
2022-12-01T15:45:48.059Z,15.38
2022-12-01T15:48:16.686Z,12.82
2022-12-01T15:50:46.697Z,12.75
2022-12-01T15:53:29.373Z,12.85
2022-12-01T15:55:59.232Z,12.75
2022-12-01T15:58:30.141Z,13.45
2022-12-01T16:01:05.660Z,14.43
2022-12-01T16:03:34.840Z,14.30
2022-12-01T16:06:01.392Z,11.82
2022-12-01T16:08:28.266Z,14.25
2022-12-01T16:11:15.653Z,11.98
2022-12-01T16:13:56.560Z,12.57
2022-12-01T16:16:45.950Z,12.25
2022-12-01T16:19:12.489Z,13.35
2022-12-01T16:21:47.665Z,14.52
2022-12-01T16:24:17.506Z,16.73
2022-12-01T16:27:08.211Z,14.10
2022-12-01T16:29:51.548Z,14.93
2022-12-01T16:32:21.939Z,14.27
2022-12-01T16:34:50.303Z,14.77
2022-12-01T16:37:16.924Z,15.77
2022-12-01T16:39:43.452Z,12.60
2022-12-01T16:42:13.084Z,11.30
2022-12-01T16:44:39.811Z,13.00
2022-12-01T16:47:26.635Z,13.30
2022-12-01T16:49:53.249Z,12.85
2022-12-01T16:55:26.717Z,11.40
2022-12-01T16:57:53.293Z,14.32
2022-12-01T17:00:20.173Z,11.77
2022-12-01T17:02:46.823Z,13.30
2022-12-01T17:05:13.423Z,13.40
2022-12-01T17:07:40.030Z,12.80
2022-12-01T17:10:07.360Z,13.25
2022-12-01T17:12:33.884Z,13.15
2022-12-01T17:15:00.457Z,13.20
2022-12-01T17:17:28.463Z,12.57
2022-12-01T17:19:55.052Z,14.55
2022-12-01T17:22:21.672Z,11.68
2022-12-01T17:24:48.432Z,11.68
2022-12-01T17:27:15.393Z,13.52
2022-12-01T17:29:46.088Z,11.45
2022-12-01T17:32:13.761Z,13.40
2022-12-01T17:34:40.551Z,13.18
2022-12-01T17:37:07.765Z,12.30
2022-12-01T17:39:34.339Z,11.98
2022-12-01T17:42:00.897Z,13.52
2022-12-01T17:44:27.423Z,13.10
2022-12-01T17:46:54.092Z,12.90
2022-12-01T17:49:20.826Z,12.60
2022-12-01T17:51:47.405Z,13.65
2022-12-01T17:54:13.966Z,12.10
2022-12-01T17:56:40.554Z,12.85
2022-12-01T17:59:07.078Z,14.95
2022-12-01T18:01:33.729Z,12.40
2022-12-01T18:04:00.342Z,13.32
2022-12-01T18:06:27.312Z,11.80
2022-12-01T18:08:54.152Z,12.82
2022-12-01T18:11:20.920Z,12.18
2022-12-01T18:13:49.479Z,12.95
2022-12-01T18:16:21.710Z,12.52
2022-12-01T18:18:48.498Z,12.23
2022-12-01T18:21:17.492Z,12.52
2022-12-01T18:23:51.684Z,11.55
2022-12-01T18:26:20.491Z,13.18
2022-12-01T18:28:47.106Z,11.23
2022-12-01T18:31:15.788Z,12.48
2022-12-01T18:33:43.855Z,12.85
2022-12-01T18:36:14.481Z,11.80
2022-12-01T18:38:41.386Z,11.18
2022-12-01T18:41:08.266Z,11.35
2022-12-01T18:43:34.836Z,11.65
2022-12-01T18:46:03.042Z,11.27
2022-12-01T18:48:29.712Z,11.13
2022-12-01T18:50:59.489Z,10.48
2022-12-01T18:53:26.876Z,11.15
2022-12-01T18:55:53.399Z,11.98
2022-12-01T18:58:19.951Z,11.82
2022-12-01T19:00:46.548Z,11.68
2022-12-01T19:03:13.216Z,11.60
2022-12-01T19:05:40.042Z,11.52
2022-12-01T19:08:06.930Z,10.18
2022-12-01T19:10:33.592Z,11.15
2022-12-01T19:13:00.130Z,12.73
2022-12-01T19:15:26.712Z,11.93
2022-12-01T19:17:53.236Z,11.40
2022-12-01T19:20:19.775Z,10.65
2022-12-01T19:22:46.327Z,10.45
2022-12-01T19:25:13.560Z,10.20
2022-12-01T19:27:40.512Z,10.73
2022-12-01T19:30:07.787Z,9.70
2022-12-01T19:32:34.505Z,10.82
2022-12-01T19:35:01.040Z,10.23
2022-12-01T19:37:27.651Z,10.63
2022-12-01T19:39:54.210Z,11.45
2022-12-01T19:42:20.749Z,10.85
2022-12-01T19:44:47.428Z,10.10
2022-12-01T19:47:17.816Z,10.70
2022-12-01T19:49:48.335Z,9.90
2022-12-01T19:52:14.851Z,9.95
2022-12-01T19:54:41.435Z,11.00
2022-12-01T19:57:07.999Z,10.63
2022-12-01T19:59:34.518Z,9.65
2022-12-01T20:02:01.141Z,9.85
2022-12-01T20:04:27.747Z,10.02
2022-12-01T20:06:54.263Z,9.60
2022-12-01T20:09:20.815Z,10.20
2022-12-01T20:11:47.347Z,10.40
2022-12-01T20:14:13.995Z,10.27
2022-12-01T20:16:40.633Z,9.88
2022-12-01T20:19:07.406Z,9.60
2022-12-01T20:21:36.635Z,9.30
2022-12-01T20:24:05.903Z,9.68
2022-12-01T20:26:35.171Z,9.80
2022-12-01T20:29:05.833Z,9.82
2022-12-01T20:31:33.261Z,9.50
2022-12-01T20:34:02.790Z,10.15
2022-12-01T20:36:30.714Z,9.68
2022-12-01T20:38:57.390Z,10.40
2022-12-01T20:41:23.929Z,9.70
2022-12-01T20:43:50.477Z,9.35
2022-12-01T20:46:17.210Z,8.98
2022-12-01T20:48:43.914Z,10.27
2022-12-01T20:51:12.443Z,9.55
2022-12-01T20:53:38.957Z,9.45
2022-12-01T20:56:07.711Z,10.00
2022-12-01T20:58:37.504Z,9.40
2022-12-01T21:01:13.732Z,9.57
2022-12-01T21:03:42.077Z,8.55
2022-12-01T21:06:10.292Z,10.07
2022-12-01T21:08:38.559Z,9.48
2022-12-01T21:11:07.831Z,9.38
2022-12-01T21:13:43.704Z,9.85
2022-12-01T21:16:16.243Z,9.52
2022-12-01T21:18:49.618Z,9.10
2022-12-01T21:21:24.190Z,9.50
2022-12-01T21:24:01.137Z,9.32
2022-12-01T21:26:27.720Z,9.00
2022-12-01T21:28:55.831Z,9.73
2022-12-01T21:31:22.442Z,9.25
2022-12-01T21:33:49.026Z,9.35
2022-12-01T21:36:20.275Z,9.63
2022-12-01T21:38:49.081Z,8.82
2022-12-01T21:41:34.159Z,9.52
2022-12-01T21:44:05.167Z,8.88
2022-12-01T21:46:31.792Z,9.02
2022-12-01T21:48:58.370Z,9.55
2022-12-01T21:51:25.338Z,8.85
2022-12-01T21:53:53.326Z,9.82
2022-12-01T21:56:28.533Z,9.52
2022-12-01T21:58:57.719Z,9.25
2022-12-01T22:01:29.577Z,9.00
2022-12-01T22:04:01.848Z,10.35
2022-12-01T22:06:38.529Z,8.35
2022-12-01T22:09:36.427Z,8.80
2022-12-01T22:12:22.466Z,9.43
2022-12-01T22:14:49.477Z,10.15
2022-12-01T22:17:20.675Z,9.07
2022-12-01T22:19:55.891Z,9.05
2022-12-01T22:22:24.827Z,8.75
2022-12-01T22:24:59.274Z,9.82
2022-12-01T22:27:37.551Z,9.77
2022-12-01T22:30:07.322Z,10.02
2022-12-01T22:32:56.827Z,8.73
2022-12-01T22:35:45.618Z,9.05
2022-12-01T22:38:20.387Z,8.57
2022-12-01T22:40:58.038Z,8.73
2022-12-01T22:43:30.340Z,8.70
2022-12-01T22:45:59.696Z,8.80
2022-12-01T22:49:00.407Z,8.38
2022-12-01T22:51:30.436Z,8.57
2022-12-01T22:54:11.951Z,8.73
2022-12-01T22:56:40.060Z,9.25
2022-12-01T22:59:36.395Z,9.35
2022-12-01T23:02:15.437Z,10.43
2022-12-01T23:04:46.032Z,8.40
2022-12-01T23:07:33.690Z,9.10
2022-12-01T23:10:28.974Z,8.60
2022-12-01T23:12:58.055Z,8.32
2022-12-01T23:15:34.662Z,9.23
2022-12-01T23:18:16.275Z,8.68
2022-12-01T23:20:44.186Z,8.73
2022-12-01T23:23:22.177Z,9.88
2022-12-01T23:25:50.212Z,8.90
2022-12-01T23:28:16.751Z,8.32
2022-12-01T23:30:44.920Z,7.72
2022-12-01T23:33:14.643Z,8.30
2022-12-01T23:35:46.002Z,7.93
2022-12-01T23:38:18.484Z,7.63
2022-12-01T23:40:45.331Z,8.88
2022-12-01T23:43:13.330Z,8.80
2022-12-01T23:45:39.924Z,8.20
2022-12-01T23:48:13.513Z,8.40
2022-12-01T23:50:40.068Z,8.00
2022-12-01T23:53:18.479Z,7.97
2022-12-01T23:55:45.005Z,8.38
2022-12-01T23:58:13.501Z,8.50
